Crossroads, Texas
Current Conditions -  °F | °C
As of 1:53 AM on Saturday 20 Dec 2014 (Local Time) from KDTO Reporting Station
Overcast Overcast  
Wind Chill: 43°   Ceiling: 1600
Heat Index: 45°   Visibility: 10mi
Dew Point: 40°   Wind: 5mph
Humidity: 82%   Direction: 350°N
Pressure: 30.21"   Gusts: NA
Location:  33.2863°N, 96.9901°W
Report Text: KDTO 200753Z AUTO 35004KT 10SM OVC016 07/04 A3021 RMK AO2 SLP231 T00720044
Loading
Personal Weather Stations






























Interactive Weather Map New forecast layout! Learn more

10-Day Weather Forecast

Advertisements
Track Severe Weather on mobile